createdAt,value
2018-11-12T00:00:02.449Z,92.00
2018-11-12T00:02:32.256Z,92.20
2018-11-12T00:05:02.684Z,92.80
2018-11-12T00:07:32.399Z,93.40
2018-11-12T00:10:01.988Z,93.80
2018-11-12T00:12:31.693Z,93.40
2018-11-12T00:15:02.178Z,94.10
2018-11-12T00:17:31.586Z,94.20
2018-11-12T00:20:01.115Z,94.40
2018-11-12T00:22:30.521Z,94.70
2018-11-12T00:25:00.352Z,94.90
2018-11-12T00:27:30.139Z,94.90
2018-11-12T00:30:00.869Z,95.10
2018-11-12T00:32:30.307Z,95.50
2018-11-12T00:34:59.710Z,95.50
2018-11-12T00:37:28.905Z,95.60
2018-11-12T00:39:59.012Z,95.90
2018-11-12T00:42:29.599Z,96.00
2018-11-12T00:44:59.085Z,96.10
2018-11-12T00:47:28.583Z,96.10
2018-11-12T00:49:58.645Z,96.20
2018-11-12T00:52:28.521Z,96.30
2018-11-12T00:54:57.966Z,96.30
2018-11-12T00:57:29.464Z,96.40
2018-11-12T00:59:59.825Z,96.40
2018-11-12T01:02:29.639Z,96.40
2018-11-12T01:05:01.088Z,96.80
2018-11-12T01:07:30.743Z,96.90
2018-11-12T01:10:01.392Z,96.80
2018-11-12T01:12:30.963Z,97.20
2018-11-12T01:15:01.206Z,97.20
2018-11-12T01:17:30.971Z,97.50
2018-11-12T01:20:01.411Z,97.70
2018-11-12T01:22:31.279Z,97.70
2018-11-12T01:25:01.018Z,98.20
2018-11-12T01:27:30.434Z,98.00
2018-11-12T01:30:01.242Z,98.00
2018-11-12T01:32:30.967Z,98.00
2018-11-12T01:35:00.519Z,98.20
2018-11-12T01:37:30.013Z,98.30
2018-11-12T01:39:59.491Z,98.40
2018-11-12T01:42:29.478Z,98.60
2018-11-12T01:44:59.249Z,98.90
2018-11-12T01:47:29.033Z,98.70
2018-11-12T01:49:59.453Z,98.80
2018-11-12T01:52:28.902Z,98.80
2018-11-12T01:54:58.418Z,98.90
2018-11-12T01:57:28.212Z,98.90
2018-11-12T01:59:59.142Z,98.90
2018-11-12T02:02:29.522Z,99.00
2018-11-12T02:04:59.172Z,99.20
2018-11-12T02:07:29.254Z,99.20
2018-11-12T02:09:59.923Z,99.20
2018-11-12T02:12:30.484Z,99.40
2018-11-12T02:15:00.254Z,99.40
2018-11-12T02:17:31.400Z,99.70
2018-11-12T02:20:01.632Z,99.70
2018-11-12T02:22:43.104Z,99.70
2018-11-12T02:25:12.637Z,99.80
2018-11-12T02:27:42.760Z,99.80
2018-11-12T02:30:12.326Z,99.90
2018-11-12T02:32:42.918Z,99.90
2018-11-12T02:35:12.571Z,99.90
2018-11-12T02:37:41.826Z,99.90
2018-11-12T02:40:11.214Z,99.90
2018-11-12T02:42:40.569Z,99.90
2018-11-12T02:45:10.148Z,99.90
2018-11-12T02:47:39.882Z,99.90
2018-11-12T02:50:10.304Z,99.90
2018-11-12T02:52:40.245Z,99.90
2018-11-12T02:55:10.229Z,99.90
2018-11-12T02:57:39.937Z,99.90
2018-11-12T03:00:10.082Z,99.90
2018-11-12T03:02:40.405Z,99.90
2018-11-12T03:05:10.739Z,99.90
2018-11-12T03:07:40.355Z,99.90
2018-11-12T03:10:10.042Z,99.90
2018-11-12T03:12:39.659Z,99.90
2018-11-12T03:15:09.919Z,99.90
2018-11-12T03:17:40.088Z,99.90
2018-11-12T03:20:09.943Z,99.90
2018-11-12T03:22:39.290Z,99.90
2018-11-12T03:25:08.877Z,99.90
2018-11-12T03:27:38.484Z,99.90
2018-11-12T03:30:07.919Z,99.90
2018-11-12T03:32:37.142Z,99.90
2018-11-12T03:35:07.479Z,99.90
2018-11-12T03:37:37.218Z,99.90
2018-11-12T03:40:06.677Z,99.90
2018-11-12T03:42:36.065Z,99.90
2018-11-12T03:45:05.921Z,99.90
2018-11-12T03:47:35.344Z,99.90
2018-11-12T03:50:06.481Z,99.90
2018-11-12T03:52:36.215Z,99.90
2018-11-12T03:55:07.448Z,99.90
2018-11-12T03:57:37.104Z,99.90
2018-11-12T04:00:07.202Z,99.90
2018-11-12T04:02:36.928Z,99.90
2018-11-12T04:05:07.149Z,99.90
2018-11-12T04:07:37.293Z,99.90
2018-11-12T04:10:07.068Z,99.90
2018-11-12T04:12:37.911Z,99.90
2018-11-12T04:15:07.470Z,99.90
2018-11-12T04:17:37.732Z,99.90
2018-11-12T04:20:07.218Z,99.90
2018-11-12T04:22:36.592Z,99.90
2018-11-12T04:25:07.658Z,99.90
2018-11-12T04:27:39.693Z,99.90
2018-11-12T04:30:09.410Z,99.90
2018-11-12T04:32:40.933Z,99.90
2018-11-12T04:35:12.375Z,99.90
2018-11-12T04:37:43.760Z,99.90
2018-11-12T04:40:13.163Z,99.90
2018-11-12T04:42:42.902Z,99.90
2018-11-12T04:45:12.242Z,99.90
2018-11-12T04:47:41.772Z,99.90
2018-11-12T04:50:11.404Z,99.90
2018-11-12T04:52:40.846Z,99.90
2018-11-12T04:55:10.843Z,99.90
2018-11-12T04:57:40.090Z,99.90
2018-11-12T05:00:11.070Z,99.90
2018-11-12T05:02:42.862Z,99.90
2018-11-12T05:05:13.426Z,99.90
2018-11-12T05:07:42.998Z,99.90
2018-11-12T05:10:12.674Z,99.90
2018-11-12T05:12:42.092Z,99.90
2018-11-12T05:15:11.398Z,99.90
2018-11-12T05:17:41.192Z,99.90
2018-11-12T05:20:10.602Z,99.90
2018-11-12T05:22:39.943Z,99.90
2018-11-12T05:25:09.381Z,99.90
2018-11-12T05:27:38.874Z,99.90
2018-11-12T05:30:08.120Z,99.90
2018-11-12T05:32:37.648Z,99.90
2018-11-12T05:35:09.120Z,99.90
2018-11-12T05:37:40.867Z,99.90
2018-11-12T05:40:10.687Z,99.90
2018-11-12T05:42:40.275Z,99.90
2018-11-12T05:45:09.841Z,99.90
2018-11-12T05:47:39.458Z,99.90
2018-11-12T05:50:09.175Z,99.90
2018-11-12T05:52:38.635Z,99.90
2018-11-12T05:55:08.190Z,99.90
2018-11-12T05:57:37.592Z,99.90
2018-11-12T06:00:07.101Z,99.90
2018-11-12T06:02:36.803Z,99.90
2018-11-12T06:05:07.508Z,99.90
2018-11-12T06:07:37.480Z,99.90
2018-11-12T06:10:08.100Z,99.90
2018-11-12T06:12:37.507Z,99.90
2018-11-12T06:15:07.066Z,99.90
2018-11-12T06:17:36.549Z,99.90
2018-11-12T06:20:06.460Z,99.90
2018-11-12T06:22:35.859Z,99.90
2018-11-12T06:25:05.561Z,99.90
2018-11-12T06:27:37.131Z,99.90
2018-11-12T06:30:06.754Z,99.90
2018-11-12T06:32:36.536Z,99.90
2018-11-12T06:35:07.306Z,99.90
2018-11-12T06:37:37.062Z,99.90
2018-11-12T06:40:06.528Z,99.90
2018-11-12T06:42:36.126Z,99.90
2018-11-12T06:45:07.294Z,99.90
2018-11-12T06:47:36.829Z,99.90
2018-11-12T06:50:06.968Z,99.90
2018-11-12T06:52:36.457Z,99.90
2018-11-12T06:55:06.779Z,99.90
2018-11-12T06:57:39.869Z,99.90
2018-11-12T07:00:09.442Z,99.90
2018-11-12T07:02:38.907Z,99.90
2018-11-12T07:05:08.455Z,99.90
2018-11-12T07:07:38.670Z,99.90
2018-11-12T07:10:08.223Z,99.90
2018-11-12T07:12:38.837Z,99.90
2018-11-12T07:15:08.697Z,99.90
2018-11-12T07:17:38.545Z,99.90
2018-11-12T07:20:08.139Z,99.90
2018-11-12T07:22:37.745Z,99.90
2018-11-12T07:25:07.064Z,99.90
2018-11-12T07:27:38.221Z,99.90
2018-11-12T07:30:07.928Z,99.90
2018-11-12T07:32:37.443Z,99.90
2018-11-12T07:35:07.354Z,99.90
2018-11-12T07:37:36.607Z,99.90
2018-11-12T07:40:06.178Z,99.90
2018-11-12T07:42:38.656Z,99.90
2018-11-12T07:45:08.223Z,99.90
2018-11-12T07:47:37.762Z,99.90
2018-11-12T07:50:07.243Z,99.90
2018-11-12T07:52:36.709Z,99.90
2018-11-12T07:55:06.594Z,99.90
2018-11-12T07:57:36.477Z,99.90
2018-11-12T08:00:06.522Z,99.90
2018-11-12T08:02:36.234Z,99.90
2018-11-12T08:05:07.954Z,99.90
2018-11-12T08:07:38.808Z,99.90
2018-11-12T08:10:08.486Z,99.90
2018-11-12T08:12:37.847Z,99.90
2018-11-12T08:15:07.574Z,99.90
2018-11-12T08:17:37.889Z,99.90
2018-11-12T08:20:07.792Z,99.90
2018-11-12T08:22:37.902Z,99.90
2018-11-12T08:25:07.279Z,99.90
2018-11-12T08:27:36.615Z,99.90
2018-11-12T08:30:06.577Z,99.90
2018-11-12T08:32:36.760Z,99.90
2018-11-12T08:35:06.765Z,99.90
2018-11-12T08:37:36.515Z,99.90
2018-11-12T08:40:06.297Z,99.90
2018-11-12T08:42:35.629Z,99.90
2018-11-12T08:45:05.497Z,99.90
2018-11-12T08:47:35.039Z,99.90
2018-11-12T08:50:05.655Z,99.90
2018-11-12T08:52:35.326Z,99.90
2018-11-12T08:55:06.448Z,99.90
2018-11-12T08:57:35.951Z,99.90
2018-11-12T09:00:05.772Z,99.90
2018-11-12T09:02:35.404Z,99.90
2018-11-12T09:05:05.161Z,99.90
2018-11-12T09:07:35.109Z,99.90
2018-11-12T09:10:05.188Z,99.90
2018-11-12T09:12:34.797Z,99.90
2018-11-12T09:15:04.112Z,99.90
2018-11-12T09:17:33.438Z,99.90
2018-11-12T09:20:02.728Z,99.90
2018-11-12T09:22:32.310Z,99.90
2018-11-12T09:25:02.115Z,99.90
2018-11-12T09:27:31.450Z,99.90
2018-11-12T09:30:00.869Z,99.90
2018-11-12T09:32:30.325Z,99.90
2018-11-12T09:34:59.790Z,99.90
2018-11-12T09:37:29.472Z,99.90
2018-11-12T09:39:59.081Z,99.90
2018-11-12T09:42:28.718Z,99.90
2018-11-12T09:44:58.090Z,99.90
2018-11-12T09:47:27.902Z,99.90
2018-11-12T09:49:57.496Z,99.90
2018-11-12T09:52:26.971Z,99.90
2018-11-12T09:54:56.994Z,99.90
2018-11-12T09:57:26.761Z,99.90
2018-11-12T09:59:57.068Z,99.90
2018-11-12T10:02:27.941Z,99.90
2018-11-12T10:04:57.750Z,99.90
2018-11-12T10:07:27.539Z,99.90
2018-11-12T10:09:57.864Z,99.90
2018-11-12T10:12:27.311Z,99.90
2018-11-12T10:14:57.698Z,99.90
2018-11-12T10:17:27.191Z,99.90
2018-11-12T10:19:54.904Z,99.90
2018-11-12T10:22:24.632Z,99.90
2018-11-12T10:24:54.293Z,99.90
2018-11-12T10:27:23.682Z,99.90
2018-11-12T10:29:52.945Z,99.90
2018-11-12T10:32:22.462Z,99.90
2018-11-12T10:34:52.194Z,99.90
2018-11-12T10:37:21.612Z,99.90
2018-11-12T10:39:51.396Z,99.90
2018-11-12T10:42:21.098Z,99.90
2018-11-12T10:44:50.360Z,99.90
2018-11-12T10:47:19.833Z,99.90
2018-11-12T10:49:49.462Z,99.90
2018-11-12T10:52:19.541Z,99.90
2018-11-12T10:54:49.250Z,99.90
2018-11-12T10:57:20.627Z,99.90
2018-11-12T10:59:50.761Z,99.90
2018-11-12T11:02:21.050Z,99.90
2018-11-12T11:04:50.779Z,99.90
2018-11-12T11:07:20.187Z,99.90
2018-11-12T11:09:49.696Z,99.90
2018-11-12T11:12:18.933Z,99.90
2018-11-12T11:14:50.027Z,99.90
2018-11-12T11:17:19.563Z,99.90
2018-11-12T11:19:48.924Z,99.90
2018-11-12T11:22:18.522Z,99.90
2018-11-12T11:24:48.250Z,99.90
2018-11-12T11:27:17.830Z,99.90
2018-11-12T11:29:47.166Z,99.90
2018-11-12T11:32:17.666Z,99.90
2018-11-12T11:34:47.093Z,99.90
2018-11-12T11:37:16.633Z,99.90
2018-11-12T11:39:46.789Z,99.90
2018-11-12T11:42:16.401Z,99.90
2018-11-12T11:44:46.415Z,99.90
2018-11-12T11:47:16.376Z,99.90
2018-11-12T11:49:47.466Z,99.90
2018-11-12T11:52:18.907Z,99.90
2018-11-12T11:54:49.278Z,99.90
2018-11-12T11:57:19.005Z,99.90
2018-11-12T11:59:50.813Z,99.90
2018-11-12T12:02:20.461Z,99.90
2018-11-12T12:04:50.179Z,99.90
2018-11-12T12:07:19.792Z,99.90
2018-11-12T12:09:49.331Z,99.90
2018-11-12T12:12:19.211Z,99.90
2018-11-12T12:14:49.253Z,99.90
2018-11-12T12:17:18.684Z,99.90
2018-11-12T12:19:48.144Z,99.90
2018-11-12T12:22:17.698Z,99.90
2018-11-12T12:24:47.432Z,99.90
2018-11-12T12:27:17.041Z,99.90
2018-11-12T12:29:45.742Z,99.90
2018-11-12T12:32:15.210Z,99.90
2018-11-12T12:34:44.396Z,99.90
2018-11-12T12:37:14.161Z,99.90
2018-11-12T12:39:43.761Z,99.90
2018-11-12T12:42:13.929Z,99.90
2018-11-12T12:44:43.324Z,99.90
2018-11-12T12:47:14.242Z,99.90
2018-11-12T12:49:44.686Z,99.90
2018-11-12T12:52:15.264Z,99.90
2018-11-12T12:54:44.741Z,99.90
2018-11-12T12:57:14.376Z,99.90
2018-11-12T12:59:44.079Z,99.90
2018-11-12T13:02:13.833Z,99.90
2018-11-12T13:04:43.510Z,99.90
2018-11-12T13:07:13.075Z,99.90
2018-11-12T13:09:42.614Z,99.90
2018-11-12T13:12:12.603Z,99.90
2018-11-12T13:14:42.316Z,99.90
2018-11-12T13:17:11.588Z,99.90
2018-11-12T13:19:41.113Z,99.90
2018-11-12T13:22:11.011Z,99.90
2018-11-12T13:24:41.159Z,99.90
2018-11-12T13:27:10.595Z,99.90
2018-11-12T13:29:40.389Z,99.90
2018-11-12T13:32:10.438Z,99.90
2018-11-12T13:34:41.320Z,99.90
2018-11-12T13:37:12.721Z,99.90
2018-11-12T13:39:42.489Z,99.90
2018-11-12T13:42:11.999Z,99.90
2018-11-12T13:44:41.451Z,99.90
2018-11-12T13:47:10.903Z,99.90
2018-11-12T13:49:40.515Z,99.90
2018-11-12T13:52:10.295Z,99.90
2018-11-12T13:54:39.955Z,99.90
2018-11-12T13:57:09.527Z,99.90
2018-11-12T13:59:39.117Z,99.90
2018-11-12T14:02:08.765Z,99.90
2018-11-12T14:04:38.386Z,99.90
2018-11-12T14:07:08.344Z,99.90
2018-11-12T14:09:37.792Z,99.90
2018-11-12T14:12:07.211Z,99.90
2018-11-12T14:14:36.820Z,99.90
2018-11-12T14:17:06.487Z,99.90
2018-11-12T14:19:36.053Z,99.90
2018-11-12T14:22:05.987Z,99.90
2018-11-12T14:24:35.496Z,99.90
2018-11-12T14:27:05.126Z,99.90
2018-11-12T14:29:35.030Z,99.90
2018-11-12T14:32:05.642Z,99.90
2018-11-12T14:34:35.255Z,99.90
2018-11-12T14:37:04.886Z,99.90
2018-11-12T14:39:34.554Z,99.90
2018-11-12T14:42:04.327Z,99.90
2018-11-12T14:44:33.853Z,99.90
2018-11-12T14:47:03.335Z,99.90
2018-11-12T14:49:32.654Z,99.90
2018-11-12T14:52:02.034Z,99.90
2018-11-12T14:54:31.256Z,99.90
2018-11-12T14:57:03.465Z,99.90
2018-11-12T14:59:32.936Z,99.90
2018-11-12T15:02:02.766Z,99.90
2018-11-12T15:04:33.292Z,99.90
2018-11-12T15:07:03.041Z,99.90
2018-11-12T15:09:32.693Z,99.90
2018-11-12T15:12:03.264Z,99.90
2018-11-12T15:14:32.771Z,99.90
2018-11-12T15:17:03.058Z,99.90
2018-11-12T15:19:32.258Z,99.90
2018-11-12T15:22:02.269Z,99.90
2018-11-12T15:24:31.529Z,99.90
2018-11-12T15:27:00.944Z,99.90
2018-11-12T15:29:30.541Z,99.90
2018-11-12T15:31:59.840Z,99.90
2018-11-12T15:34:30.500Z,99.90
2018-11-12T15:37:00.312Z,99.90
2018-11-12T15:39:29.893Z,99.90
2018-11-12T15:41:59.493Z,99.90
2018-11-12T15:44:29.728Z,99.90
2018-11-12T15:46:59.240Z,99.90
2018-11-12T15:49:29.005Z,99.90
2018-11-12T15:51:58.866Z,99.90
2018-11-12T15:54:28.115Z,99.90
2018-11-12T15:56:57.520Z,99.90
2018-11-12T15:59:26.880Z,99.90
2018-11-12T16:01:56.207Z,99.90
2018-11-12T16:04:25.551Z,99.90
2018-11-12T16:06:55.654Z,99.90
2018-11-12T16:09:25.563Z,99.90
2018-11-12T16:11:54.905Z,99.90
2018-11-12T16:14:24.634Z,99.90
2018-11-12T16:16:54.757Z,99.90
2018-11-12T16:19:24.273Z,99.90
2018-11-12T16:21:54.643Z,99.90
2018-11-12T16:24:24.763Z,99.20
2018-11-12T16:26:54.788Z,99.20
2018-11-12T16:29:24.243Z,98.70
2018-11-12T16:31:54.807Z,98.80
2018-11-12T16:34:24.825Z,98.80
2018-11-12T16:36:56.594Z,98.70
2018-11-12T16:39:26.058Z,98.60
2018-11-12T16:41:55.418Z,98.50
2018-11-12T16:44:24.798Z,98.60
2018-11-12T16:46:55.582Z,98.60
2018-11-12T16:49:24.993Z,98.70
2018-11-12T16:51:54.385Z,98.40
2018-11-12T16:54:23.590Z,98.30
2018-11-12T16:56:53.298Z,98.50
2018-11-12T16:59:22.693Z,98.60
2018-11-12T17:01:53.712Z,98.70
2018-11-12T17:04:24.725Z,98.80
2018-11-12T17:06:54.992Z,98.40
2018-11-12T17:09:24.480Z,98.30
2018-11-12T17:11:54.686Z,97.80
2018-11-12T17:14:24.352Z,96.50
2018-11-12T17:16:53.905Z,96.50
2018-11-12T17:19:23.626Z,96.60
2018-11-12T17:21:54.910Z,96.50
2018-11-12T17:24:24.861Z,96.00
2018-11-12T17:26:54.563Z,95.70
2018-11-12T17:29:25.276Z,95.10
2018-11-12T17:31:55.080Z,95.10
2018-11-12T17:34:24.450Z,95.00
2018-11-12T17:36:53.605Z,95.00
2018-11-12T17:39:23.880Z,95.00
2018-11-12T17:41:55.304Z,95.00
2018-11-12T17:44:25.172Z,94.90
2018-11-12T17:46:54.765Z,94.60
2018-11-12T17:49:25.656Z,93.90
2018-11-12T17:51:55.196Z,94.00
2018-11-12T17:54:24.812Z,94.20
2018-11-12T17:56:54.174Z,94.00
2018-11-12T17:59:24.988Z,93.70
2018-11-12T18:01:54.150Z,93.70
2018-11-12T18:04:23.791Z,92.80
2018-11-12T18:06:53.259Z,91.10
2018-11-12T18:09:22.745Z,90.60
2018-11-12T18:11:52.388Z,90.60
2018-11-12T18:14:22.838Z,89.50
2018-11-12T18:16:53.474Z,85.00
2018-11-12T18:19:22.937Z,80.80
2018-11-12T18:21:52.960Z,80.40
2018-11-12T18:24:22.551Z,79.20
2018-11-12T18:26:52.353Z,78.70
2018-11-12T18:29:21.935Z,77.30
2018-11-12T18:31:51.794Z,78.10
2018-11-12T18:34:21.433Z,79.90
2018-11-12T18:36:51.847Z,79.50
2018-11-12T18:39:21.317Z,79.50
2018-11-12T18:41:50.666Z,80.30
2018-11-12T18:44:20.646Z,81.50
2018-11-12T18:46:50.004Z,78.80
2018-11-12T18:49:20.201Z,79.70
2018-11-12T18:51:49.998Z,79.70
2018-11-12T18:54:19.706Z,81.60
2018-11-12T18:56:49.220Z,81.20
2018-11-12T18:59:19.021Z,81.80
2018-11-12T19:01:48.468Z,80.00
2018-11-12T19:04:20.540Z,77.40
2018-11-12T19:06:50.435Z,74.80
2018-11-12T19:09:21.169Z,73.50
2018-11-12T19:11:50.958Z,73.70
2018-11-12T19:14:20.342Z,71.30
2018-11-12T19:16:49.949Z,68.60
2018-11-12T19:19:19.568Z,63.40
2018-11-12T19:21:49.038Z,53.90
2018-11-12T19:24:18.418Z,42.10
2018-11-12T19:26:49.020Z,41.20
2018-11-12T19:29:18.338Z,41.20
2018-11-12T19:31:48.592Z,42.70
2018-11-12T19:34:19.204Z,42.70
2018-11-12T19:36:49.727Z,42.70
2018-11-12T19:39:20.065Z,43.40
2018-11-12T19:41:50.318Z,45.90
2018-11-12T19:44:19.800Z,45.90
2018-11-12T19:46:49.460Z,48.60
2018-11-12T19:49:18.874Z,52.20
2018-11-12T19:51:49.649Z,51.60
2018-11-12T19:54:19.511Z,51.60
2018-11-12T19:56:48.802Z,50.40
2018-11-12T19:59:19.752Z,53.30
2018-11-12T20:01:49.525Z,53.70
2018-11-12T20:04:18.859Z,55.40
2018-11-12T20:06:49.151Z,57.20
2018-11-12T20:09:18.070Z,57.20
2018-11-12T20:11:48.412Z,57.90
2018-11-12T20:14:18.195Z,58.50
2018-11-12T20:16:47.854Z,60.20
2018-11-12T20:19:18.316Z,61.10
2018-11-12T20:21:48.963Z,61.10
2018-11-12T20:24:18.271Z,61.70
2018-11-12T20:26:47.955Z,62.30
2018-11-12T20:29:17.665Z,61.60
2018-11-12T20:31:47.477Z,60.10
2018-11-12T20:34:16.979Z,59.60
2018-11-12T20:36:46.899Z,59.60
2018-11-12T20:39:16.119Z,59.60
2018-11-12T20:41:45.627Z,59.00
2018-11-12T20:44:15.094Z,58.40
2018-11-12T20:46:45.129Z,59.40
2018-11-12T20:49:15.668Z,60.50
2018-11-12T20:51:45.384Z,59.00
2018-11-12T20:54:14.917Z,58.30
2018-11-12T20:56:44.560Z,59.40
2018-11-12T20:59:14.130Z,59.70
2018-11-12T21:01:43.763Z,58.70
2018-11-12T21:04:13.447Z,58.70
2018-11-12T21:06:42.932Z,59.40
2018-11-12T21:09:12.619Z,59.10
2018-11-12T21:11:42.134Z,61.60
2018-11-12T21:14:15.096Z,60.60
2018-11-12T21:16:45.534Z,62.40
2018-11-12T21:19:14.863Z,61.70
2018-11-12T21:21:44.283Z,62.00
2018-11-12T21:24:13.802Z,61.50
2018-11-12T21:26:43.142Z,64.60
2018-11-12T21:29:13.149Z,64.40
2018-11-12T21:31:42.557Z,65.40
2018-11-12T21:34:12.801Z,68.60
2018-11-12T21:36:42.409Z,68.50
2018-11-12T21:39:11.765Z,66.90
2018-11-12T21:41:41.531Z,64.10
2018-11-12T21:44:11.182Z,64.80
2018-11-12T21:46:41.797Z,64.40
2018-11-12T21:49:12.093Z,64.20
2018-11-12T21:51:41.433Z,64.20
2018-11-12T21:54:12.372Z,65.40
2018-11-12T21:56:41.978Z,65.20
2018-11-12T21:59:11.866Z,65.80
2018-11-12T22:01:42.505Z,65.40
2018-11-12T22:04:11.990Z,65.20
2018-11-12T22:06:41.812Z,66.70
2018-11-12T22:09:11.510Z,67.60
2018-11-12T22:11:41.034Z,68.20
2018-11-12T22:14:10.798Z,67.60
2018-11-12T22:16:41.270Z,69.50
2018-11-12T22:19:10.977Z,69.40
2018-11-12T22:21:40.663Z,68.70
2018-11-12T22:24:10.260Z,69.40
2018-11-12T22:26:49.156Z,69.10
2018-11-12T22:29:18.801Z,68.90
2018-11-12T22:31:49.504Z,68.10
2018-11-12T22:34:20.051Z,68.50
2018-11-12T22:36:50.062Z,69.70
2018-11-12T22:39:19.816Z,68.60
2018-11-12T22:41:49.291Z,70.90
2018-11-12T22:44:19.273Z,71.00
2018-11-12T22:46:48.702Z,72.70
2018-11-12T22:49:19.268Z,70.10
2018-11-12T22:51:48.748Z,69.20
2018-11-12T22:54:18.165Z,70.10
2018-11-12T22:56:48.901Z,70.00
2018-11-12T22:59:18.260Z,71.00
2018-11-12T23:01:48.689Z,70.20
2018-11-12T23:04:18.719Z,73.30
2018-11-12T23:06:50.360Z,73.30
2018-11-12T23:09:19.909Z,72.30
2018-11-12T23:11:50.186Z,73.40
2018-11-12T23:14:19.892Z,74.80
2018-11-12T23:16:49.893Z,75.20
2018-11-12T23:19:19.521Z,74.20
2018-11-12T23:21:49.276Z,75.90
2018-11-12T23:24:19.286Z,75.60
2018-11-12T23:26:50.346Z,76.10
2018-11-12T23:29:19.844Z,76.90
2018-11-12T23:31:49.637Z,79.20
2018-11-12T23:34:19.288Z,81.00
2018-11-12T23:36:49.198Z,80.70
2018-11-12T23:39:18.856Z,81.40
2018-11-12T23:41:48.433Z,82.20
2018-11-12T23:44:18.048Z,82.70
2018-11-12T23:46:47.717Z,83.50
2018-11-12T23:49:17.896Z,83.40
2018-11-12T23:51:47.564Z,83.40
2018-11-12T23:54:17.660Z,85.50
2018-11-12T23:56:47.155Z,86.80
2018-11-12T23:59:19.058Z,87.40
